Time;durP1;ratioP1;P1;durP2;ratioP2;P2;SDS_P1;SDS_P2;PMS_P1;PMS_P2;Temp;Humidity;BMP_temperature;BMP_pressure;BME280_temperature;BME280_humidity;BME280_pressure;Samples;Min_cycle;Max_cycle;Signal;HPM_P1;HPM_P2
2023/02/04 00:01:30;;;;;;;17.67;2.05;;;8.30;99.90;;;;;;5025410;28;20030;-35
2023/02/04 00:03:56;;;;;;;9.50;2.08;;;8.30;99.90;;;;;;5024181;28;20033;-40
2023/02/04 00:06:21;;;;;;;17.63;2.00;;;8.20;99.90;;;;;;5034476;28;20398;-41
2023/02/04 00:08:47;;;;;;;19.58;3.13;;;8.20;99.90;;;;;;5032018;28;20071;-39
2023/02/04 00:11:13;;;;;;;22.17;3.08;;;8.20;99.90;;;;;;5024115;28;20407;-35
2023/02/04 00:13:38;;;;;;;27.17;3.30;;;8.30;99.90;;;;;;5026440;28;20378;-34
2023/02/04 00:16:04;;;;;;;20.45;2.90;;;8.20;99.90;;;;;;5025586;28;20018;-36
2023/02/04 00:18:30;;;;;;;15.45;2.47;;;8.20;99.90;;;;;;5029205;28;20500;-38
2023/02/04 00:20:55;;;;;;;26.77;2.88;;;8.20;99.90;;;;;;5022367;28;20124;-38
2023/02/04 00:23:21;;;;;;;28.08;3.40;;;8.10;99.90;;;;;;5027458;28;20025;-35
2023/02/04 00:25:46;;;;;;;12.65;2.15;;;8.00;99.90;;;;;;5026866;28;20080;-39
2023/02/04 00:28:12;;;;;;;27.13;3.65;;;7.90;99.90;;;;;;5030866;28;20017;-42
2023/02/04 00:30:38;;;;;;;19.10;2.30;;;7.90;99.90;;;;;;5026879;28;20058;-42
2023/02/04 00:33:03;;;;;;;18.42;3.08;;;7.80;99.90;;;;;;5028890;28;20520;-42
2023/02/04 00:35:29;;;;;;;11.77;2.92;;;7.80;99.90;;;;;;5031217;28;20033;-40
2023/02/04 00:37:55;;;;;;;18.02;2.00;;;7.80;99.90;;;;;;5021175;28;20517;-41
2023/02/04 00:40:20;;;;;;;22.83;2.85;;;7.80;99.90;;;;;;5015857;28;20045;-48
2023/02/04 00:42:46;;;;;;;19.35;4.50;;;7.80;99.90;;;;;;5028709;28;20061;-42
2023/02/04 00:45:12;;;;;;;12.93;2.40;;;7.70;99.90;;;;;;5019078;28;20037;-42
2023/02/04 00:47:38;;;;;;;19.60;3.42;;;7.70;99.90;;;;;;5023133;28;20056;-45
2023/02/04 00:50:04;;;;;;;21.25;2.20;;;7.70;99.90;;;;;;5031595;28;20490;-47
2023/02/04 00:52:30;;;;;;;24.63;3.45;;;7.60;99.90;;;;;;5013751;28;20052;-45
2023/02/04 00:54:55;;;;;;;23.85;2.63;;;7.60;99.90;;;;;;5024060;28;20108;-43
2023/02/04 00:57:21;;;;;;;14.65;2.00;;;7.60;99.90;;;;;;5026934;28;20608;-42
2023/02/04 00:59:47;;;;;;;16.40;2.83;;;7.60;99.90;;;;;;5019842;28;20030;-47
2023/02/04 01:02:13;;;;;;;23.73;3.47;;;7.60;99.90;;;;;;5013975;28;20034;-48
2023/02/04 01:04:38;;;;;;;27.27;4.05;;;7.60;99.90;;;;;;5017312;28;20473;-42
2023/02/04 01:07:04;;;;;;;21.92;2.63;;;7.60;99.90;;;;;;5013741;28;20034;-61
2023/02/04 01:09:30;;;;;;;17.42;2.67;;;7.60;99.90;;;;;;5016060;28;20044;-42
2023/02/04 01:11:55;;;;;;;25.95;2.45;;;7.60;99.90;;;;;;5033200;28;20144;-42
2023/02/04 01:14:21;;;;;;;26.70;2.70;;;7.60;99.90;;;;;;5031911;28;20033;-38
2023/02/04 01:16:47;;;;;;;34.55;3.35;;;7.60;99.90;;;;;;5037346;28;20032;-34
2023/02/04 01:19:12;;;;;;;13.90;2.80;;;7.60;99.90;;;;;;5033303;28;20036;-38
2023/02/04 01:21:38;;;;;;;13.60;3.15;;;7.60;99.90;;;;;;5027427;28;20064;-38
2023/02/04 01:24:04;;;;;;;12.57;2.97;;;7.60;99.90;;;;;;5033269;28;20033;-33
2023/02/04 01:26:29;;;;;;;23.00;4.43;;;7.60;99.90;;;;;;5028968;28;20029;-33
2023/02/04 01:28:55;;;;;;;16.40;2.38;;;7.70;99.90;;;;;;5026241;28;20029;-34
2023/02/04 01:31:21;;;;;;;34.85;4.15;;;7.80;99.90;;;;;;5019792;28;20032;-36
2023/02/04 01:33:46;;;;;;;30.50;3.38;;;7.70;99.90;;;;;;5026439;28;20029;-39
2023/02/04 01:36:12;;;;;;;26.02;3.35;;;7.60;99.90;;;;;;5017960;28;20493;-39
2023/02/04 01:38:38;;;;;;;21.35;2.40;;;7.60;99.90;;;;;;5021971;28;20500;-39
2023/02/04 01:41:05;;;;;;;23.80;3.00;;;7.60;99.90;;;;;;5030444;28;20144;-34
2023/02/04 01:43:32;;;;;;;21.55;2.63;;;7.60;99.90;;;;;;5031287;28;20018;-43
2023/02/04 01:45:58;;;;;;;19.05;3.35;;;7.70;99.90;;;;;;5022889;28;20030;-40
2023/02/04 01:48:24;;;;;;;21.60;2.20;;;7.70;99.90;;;;;;5032281;28;20026;-42
2023/02/04 01:50:52;;;;;;;17.27;1.98;;;7.60;99.90;;;;;;5020349;28;20030;-41
2023/02/04 01:53:24;;;;;;;19.83;3.72;;;7.80;99.90;;;;;;5020327;28;20036;-40
2023/02/04 01:55:51;;;;;;;22.35;3.17;;;7.70;99.90;;;;;;5029705;28;20034;-42
2023/02/04 01:58:17;;;;;;;27.15;4.45;;;7.70;99.90;;;;;;5024410;28;20037;-44
2023/02/04 02:00:43;;;;;;;21.40;2.88;;;7.80;99.90;;;;;;5018156;28;20512;-41
2023/02/04 02:03:10;;;;;;;29.35;3.00;;;7.80;99.90;;;;;;5025927;28;20033;-43
2023/02/04 02:05:43;;;;;;;15.35;2.83;;;7.80;99.90;;;;;;5025567;28;20029;-41
2023/02/04 02:08:10;;;;;;;23.80;2.92;;;7.80;99.90;;;;;;5027631;28;20501;-42
2023/02/04 02:10:38;;;;;;;18.65;2.83;;;7.80;99.90;;;;;;5015643;28;20439;-41
2023/02/04 02:13:05;;;;;;;35.13;4.15;;;7.80;99.90;;;;;;5022503;28;20571;-44
2023/02/04 02:15:31;;;;;;;29.15;4.95;;;7.80;99.90;;;;;;5032374;28;20051;-42
2023/02/04 02:17:57;;;;;;;16.65;2.58;;;7.80;99.90;;;;;;5019327;28;20108;-42
2023/02/04 02:20:24;;;;;;;13.00;2.35;;;7.80;99.90;;;;;;5013143;28;20371;-46
2023/02/04 02:23:09;;;;;;;30.92;3.30;;;7.80;99.90;;;;;;5024655;28;20036;-46
2023/02/04 02:25:35;;;;;;;25.67;2.78;;;7.80;99.90;;;;;;5032470;28;20037;-45
2023/02/04 02:28:03;;;;;;;26.88;2.75;;;7.80;99.90;;;;;;5031427;28;20029;-42
2023/02/04 02:30:29;;;;;;;30.88;3.08;;;7.70;99.90;;;;;;5016014;28;20497;-43
2023/02/04 02:32:56;;;;;;;12.35;2.47;;;7.80;99.90;;;;;;5026609;28;20025;-45
2023/02/04 02:35:22;;;;;;;16.95;2.92;;;7.80;99.90;;;;;;5029726;28;20057;-41
2023/02/04 02:37:48;;;;;;;23.88;3.97;;;7.90;99.90;;;;;;5030571;28;20072;-42
2023/02/04 02:40:14;;;;;;;21.83;3.10;;;7.90;99.90;;;;;;5016006;28;20564;-42
2023/02/04 02:42:42;;;;;;;15.57;2.10;;;7.90;99.90;;;;;;5016868;28;20024;-45
2023/02/04 02:45:24;;;;;;;17.80;2.45;;;7.90;99.90;;;;;;5032477;28;20385;-42
2023/02/04 02:47:51;;;;;;;22.63;2.40;;;7.90;99.90;;;;;;5032386;28;20037;-41
2023/02/04 02:50:20;;;;;;;22.48;2.53;;;7.90;99.90;;;;;;5030785;28;20021;-39
2023/02/04 02:52:46;;;;;;;18.38;2.33;;;7.90;99.90;;;;;;5018088;28;20065;-40
2023/02/04 02:55:17;;;;;;;29.80;2.92;;;7.80;99.90;;;;;;5012598;28;20432;-41
2023/02/04 02:57:44;;;;;;;24.38;2.25;;;7.80;99.90;;;;;;5025874;28;20040;-41
2023/02/04 03:00:15;;;;;;;11.63;2.38;;;7.80;99.90;;;;;;5018257;28;20060;-41
2023/02/04 03:02:42;;;;;;;23.77;3.65;;;7.90;99.90;;;;;;5012600;28;20389;-40
2023/02/04 03:05:08;;;;;;;18.17;2.95;;;7.90;99.90;;;;;;5026347;28;20477;-43
2023/02/04 03:07:34;;;;;;;14.05;2.45;;;7.80;99.90;;;;;;5033795;28;20448;-38
2023/02/04 03:10:00;;;;;;;13.77;2.20;;;7.80;99.90;;;;;;5016557;28;20106;-41
2023/02/04 03:12:26;;;;;;;23.50;2.67;;;7.80;99.90;;;;;;5015766;28;20049;-42
2023/02/04 03:14:51;;;;;;;25.67;3.50;;;7.80;99.90;;;;;;5031728;28;20022;-40
2023/02/04 03:17:17;;;;;;;19.60;2.95;;;7.80;99.90;;;;;;5035600;28;20466;-42
2023/02/04 03:19:43;;;;;;;19.30;2.47;;;7.80;99.90;;;;;;5017100;28;20026;-40
2023/02/04 03:22:09;;;;;;;14.65;2.05;;;7.70;99.90;;;;;;5015698;28;20033;-39
2023/02/04 03:24:36;;;;;;;10.63;2.83;;;7.70;99.90;;;;;;5015628;28;20033;-43
2023/02/04 03:27:02;;;;;;;21.45;2.63;;;7.70;99.90;;;;;;5021153;28;20739;-35
2023/02/04 03:29:28;;;;;;;15.52;2.40;;;7.60;99.90;;;;;;5026010;28;20025;-34
2023/02/04 03:31:54;;;;;;;11.60;3.65;;;7.60;99.90;;;;;;5033182;28;20037;-34
2023/02/04 03:34:21;;;;;;;17.35;3.38;;;7.60;99.90;;;;;;5032325;28;20032;-35
2023/02/04 03:36:47;;;;;;;12.40;2.45;;;7.50;99.90;;;;;;5026295;28;20060;-32
2023/02/04 03:39:12;;;;;;;17.75;2.75;;;7.50;99.90;;;;;;5027909;28;20127;-36
2023/02/04 03:41:38;;;;;;;19.15;2.92;;;7.40;99.90;;;;;;5034967;28;20037;-40
2023/02/04 03:44:03;;;;;;;11.98;3.03;;;7.40;99.90;;;;;;5033247;28;20398;-36
2023/02/04 03:46:29;;;;;;;13.80;2.67;;;7.30;99.90;;;;;;5035027;28;20060;-38
2023/02/04 03:48:55;;;;;;;10.30;2.15;;;7.30;99.90;;;;;;5029262;28;20056;-36
2023/02/04 03:51:20;;;;;;;18.85;2.45;;;7.30;99.90;;;;;;5033266;28;20029;-40
2023/02/04 03:53:46;;;;;;;23.98;3.20;;;7.20;99.90;;;;;;5022101;28;20425;-45
2023/02/04 03:56:12;;;;;;;16.08;3.03;;;7.20;99.90;;;;;;5015042;28;20475;-43
2023/02/04 03:58:37;;;;;;;12.57;2.85;;;7.20;99.90;;;;;;5020906;28;20029;-46
2023/02/04 04:01:03;;;;;;;14.57;2.55;;;7.10;99.90;;;;;;5033746;28;20053;-41
2023/02/04 04:03:28;;;;;;;6.75;2.45;;;7.10;99.90;;;;;;5032932;28;20474;-40
2023/02/04 04:05:54;;;;;;;19.65;3.10;;;7.10;99.90;;;;;;5028187;28;20068;-44
2023/02/04 04:08:19;;;;;;;19.10;2.05;;;7.00;99.90;;;;;;5023103;28;20025;-37
2023/02/04 04:10:45;;;;;;;11.43;1.98;;;7.10;99.90;;;;;;5033719;28;20029;-40
2023/02/04 04:13:11;;;;;;;24.10;2.67;;;7.00;99.90;;;;;;5032394;28;20569;-37
2023/02/04 04:15:36;;;;;;;12.07;3.45;;;7.00;99.90;;;;;;5034385;28;20029;-37
2023/02/04 04:18:03;;;;;;;14.07;2.70;;;7.10;99.90;;;;;;5024526;28;20438;-33
2023/02/04 04:20:29;;;;;;;15.13;3.28;;;7.10;99.90;;;;;;5033143;28;20441;-37
2023/02/04 04:22:54;;;;;;;20.55;2.90;;;7.10;99.90;;;;;;5032612;28;20068;-38
2023/02/04 04:25:20;;;;;;;21.27;4.65;;;7.20;99.90;;;;;;5034507;28;20136;-36
2023/02/04 04:27:46;;;;;;;16.70;2.17;;;7.20;99.90;;;;;;5034199;28;20561;-38
2023/02/04 04:30:11;;;;;;;16.38;2.85;;;7.20;99.90;;;;;;5026402;28;20116;-42
2023/02/04 04:32:37;;;;;;;12.43;2.50;;;7.20;99.90;;;;;;5014048;28;20026;-41
2023/02/04 04:35:03;;;;;;;27.52;4.15;;;7.20;99.90;;;;;;5014452;28;20029;-45
2023/02/04 04:37:29;;;;;;;24.20;4.45;;;7.20;99.90;;;;;;5014558;28;20025;-46
2023/02/04 04:39:54;;;;;;;27.83;3.28;;;7.20;99.90;;;;;;5030975;28;20040;-41
2023/02/04 04:42:20;;;;;;;18.63;3.35;;;7.20;99.90;;;;;;5029731;28;20496;-41
2023/02/04 04:44:45;;;;;;;16.15;2.63;;;7.30;99.90;;;;;;5029753;28;20533;-39
2023/02/04 04:47:11;;;;;;;19.48;2.53;;;7.30;99.90;;;;;;5033360;28;20470;-40
2023/02/04 04:49:37;;;;;;;18.52;2.90;;;7.30;99.90;;;;;;5025932;28;20025;-41
2023/02/04 04:52:02;;;;;;;12.45;2.00;;;7.30;99.90;;;;;;5032400;28;20041;-39
2023/02/04 04:54:28;;;;;;;14.80;2.30;;;7.30;99.90;;;;;;5018473;28;20030;-41
2023/02/04 04:56:54;;;;;;;23.67;3.70;;;7.30;99.90;;;;;;5016846;28;20029;-39
2023/02/04 04:59:19;;;;;;;12.27;2.33;;;7.30;99.90;;;;;;5028228;28;20025;-41
2023/02/04 05:01:45;;;;;;;22.35;3.45;;;7.30;99.90;;;;;;5032200;28;20116;-39
2023/02/04 05:04:10;;;;;;;23.73;3.72;;;7.40;99.90;;;;;;5030918;28;20021;-42
2023/02/04 05:06:36;;;;;;;21.15;2.60;;;7.40;99.90;;;;;;5032976;28;20025;-43
2023/02/04 05:09:02;;;;;;;20.50;2.70;;;7.40;99.90;;;;;;5029037;28;20029;-42
2023/02/04 05:11:28;;;;;;;16.80;2.95;;;7.40;99.90;;;;;;5031225;28;20029;-41
2023/02/04 05:13:53;;;;;;;22.92;3.17;;;7.40;99.90;;;;;;5032940;28;20041;-42
2023/02/04 05:16:19;;;;;;;12.80;2.72;;;7.40;99.90;;;;;;5033345;28;20052;-45
2023/02/04 05:18:44;;;;;;;15.55;2.65;;;7.40;99.90;;;;;;5030456;28;20022;-39
2023/02/04 05:21:10;;;;;;;14.43;2.67;;;7.40;99.90;;;;;;5033577;28;20025;-42
2023/02/04 05:23:36;;;;;;;13.98;2.53;;;7.40;99.90;;;;;;5033189;28;20017;-43
2023/02/04 05:26:01;;;;;;;14.75;2.88;;;7.40;99.90;;;;;;5033118;28;20037;-44
2023/02/04 05:28:27;;;;;;;10.90;2.47;;;7.40;99.90;;;;;;5021212;28;20140;-41
2023/02/04 05:30:52;;;;;;;21.65;2.67;;;7.40;99.90;;;;;;5028088;28;20030;-40
2023/02/04 05:33:18;;;;;;;22.35;3.08;;;7.30;99.90;;;;;;5031330;28;20036;-42
2023/02/04 05:35:44;;;;;;;17.75;2.70;;;7.30;99.90;;;;;;5033113;28;20497;-41
2023/02/04 05:38:09;;;;;;;7.05;2.03;;;7.30;99.90;;;;;;5023586;28;20026;-44
2023/02/04 05:40:35;;;;;;;25.25;4.00;;;7.30;99.90;;;;;;5031768;28;20037;-43
2023/02/04 05:43:00;;;;;;;12.88;2.83;;;7.30;99.90;;;;;;5021240;28;20105;-41
2023/02/04 05:45:26;;;;;;;20.00;2.75;;;7.30;99.90;;;;;;5013049;28;20120;-43
2023/02/04 05:47:52;;;;;;;20.58;3.05;;;7.20;99.90;;;;;;5020360;28;20018;-46
2023/02/04 05:50:17;;;;;;;28.88;3.30;;;7.20;99.90;;;;;;5032826;28;20105;-41
2023/02/04 05:52:43;;;;;;;21.15;2.92;;;7.20;99.90;;;;;;5033107;28;20029;-41
2023/02/04 05:55:11;;;;;;;15.32;3.17;;;7.30;99.90;;;;;;5033114;28;20029;-42
2023/02/04 05:57:38;;;;;;;8.23;2.58;;;7.30;99.90;;;;;;5015669;28;20031;-41
2023/02/04 06:00:04;;;;;;;17.08;3.03;;;7.40;99.90;;;;;;5026480;28;20040;-45
2023/02/04 06:02:30;;;;;;;15.32;3.50;;;7.40;99.90;;;;;;5020764;28;20037;-42
2023/02/04 06:04:56;;;;;;;13.77;3.17;;;7.40;99.90;;;;;;5032752;28;20033;-43
2023/02/04 06:07:21;;;;;;;21.13;3.00;;;7.40;99.90;;;;;;5021797;28;20105;-42
2023/02/04 06:09:47;;;;;;;19.13;3.42;;;7.40;99.90;;;;;;5012787;28;20521;-45
2023/02/04 06:12:12;;;;;;;17.60;3.20;;;7.30;99.90;;;;;;5012692;28;20045;-41
2023/02/04 06:14:38;;;;;;;22.40;4.63;;;7.30;99.90;;;;;;5014387;28;20030;-40
2023/02/04 06:17:04;;;;;;;15.07;3.08;;;7.30;99.90;;;;;;5018393;28;20021;-44
2023/02/04 06:19:29;;;;;;;8.43;2.88;;;7.30;99.90;;;;;;5021368;28;20037;-41
2023/02/04 06:24:39;;;;;;;23.50;3.17;;;7.30;99.90;;;;;;5021903;28;20529;-43
2023/02/04 06:27:05;;;;;;;18.50;3.33;;;7.30;99.90;;;;;;5027956;28;20021;-41
2023/02/04 06:29:30;;;;;;;13.00;3.30;;;7.30;99.90;;;;;;5031881;28;20029;-41
2023/02/04 06:31:56;;;;;;;11.13;2.60;;;7.30;99.90;;;;;;5031991;28;20018;-38
2023/02/04 06:34:21;;;;;;;11.25;2.78;;;7.30;99.90;;;;;;5021808;28;20025;-42
2023/02/04 06:36:47;;;;;;;10.60;3.03;;;7.30;99.90;;;;;;5015089;28;20441;-52
2023/02/04 06:39:13;;;;;;;13.15;2.95;;;7.30;99.90;;;;;;5027516;28;20137;-46
2023/02/04 06:41:38;;;;;;;12.23;3.63;;;7.40;99.90;;;;;;5016387;28;20030;-44
2023/02/04 06:44:04;;;;;;;22.83;3.30;;;7.40;99.90;;;;;;5023294;28;20034;-36
2023/02/04 06:46:30;;;;;;;9.18;2.45;;;7.40;99.90;;;;;;5016970;28;20065;-37
2023/02/04 06:48:55;;;;;;;16.83;3.05;;;7.50;99.90;;;;;;5030048;28;20025;-35
2023/02/04 06:51:21;;;;;;;12.32;3.13;;;7.50;99.90;;;;;;5034917;28;20393;-40
2023/02/04 06:53:46;;;;;;;24.40;3.72;;;7.50;99.90;;;;;;5034193;28;20140;-33
2023/02/04 06:56:12;;;;;;;12.65;3.03;;;7.50;99.90;;;;;;5030119;28;20022;-40
2023/02/04 06:58:38;;;;;;;18.35;4.05;;;7.60;99.90;;;;;;5035160;28;20025;-34
2023/02/04 07:01:05;;;;;;;15.32;3.53;;;7.60;99.90;;;;;;5033660;28;20034;-37
2023/02/04 07:03:31;;;;;;;10.57;3.10;;;7.60;99.90;;;;;;5036103;28;20116;-38
2023/02/04 07:05:56;;;;;;;20.65;4.93;;;7.60;99.90;;;;;;5018522;28;20459;-37
2023/02/04 07:08:22;;;;;;;20.77;2.80;;;7.70;99.90;;;;;;5015992;28;20071;-38
2023/02/04 07:10:48;;;;;;;15.30;2.72;;;7.70;99.90;;;;;;5025969;28;20075;-37
2023/02/04 07:13:13;;;;;;;10.18;3.38;;;7.70;99.90;;;;;;5028192;28;20044;-40
2023/02/04 07:15:39;;;;;;;18.67;3.67;;;7.70;99.90;;;;;;5034039;28;20032;-36
2023/02/04 07:18:05;;;;;;;17.48;3.40;;;7.70;99.90;;;;;;5031591;28;20038;-37
2023/02/04 07:20:30;;;;;;;13.10;3.90;;;7.70;99.90;;;;;;5025855;28;20033;-39
2023/02/04 07:22:56;;;;;;;16.20;4.03;;;7.70;99.90;;;;;;5035605;28;20440;-40
2023/02/04 07:25:22;;;;;;;12.75;3.15;;;7.70;99.90;;;;;;5031741;28;20060;-36
2023/02/04 07:27:48;;;;;;;17.73;3.90;;;7.80;99.90;;;;;;5023674;28;20104;-40
2023/02/04 07:30:13;;;;;;;23.63;4.55;;;7.80;99.90;;;;;;5034032;28;20120;-38
2023/02/04 07:32:39;;;;;;;13.00;3.13;;;7.70;99.90;;;;;;5032375;28;20030;-44
2023/02/04 07:35:05;;;;;;;11.38;2.83;;;7.70;99.90;;;;;;5026490;28;20037;-44
2023/02/04 07:37:31;;;;;;;19.42;4.25;;;7.70;99.90;;;;;;5027972;28;20030;-41
2023/02/04 07:39:56;;;;;;;21.65;3.15;;;7.80;99.90;;;;;;5033775;28;20547;-39
2023/02/04 07:42:22;;;;;;;18.40;3.85;;;7.80;99.90;;;;;;5030036;28;20030;-43
2023/02/04 07:44:47;;;;;;;13.57;3.03;;;7.80;99.90;;;;;;5018856;28;20029;-46
2023/02/04 07:49:57;;;;;;;20.77;3.75;;;7.90;99.90;;;;;;5034686;28;20393;-44
2023/02/04 07:52:24;;;;;;;21.00;3.92;;;8.00;99.90;;;;;;5029909;28;20025;-40
2023/02/04 07:54:51;;;;;;;18.25;3.85;;;8.00;99.90;;;;;;5030620;28;20032;-39
2023/02/04 07:57:18;;;;;;;15.50;4.85;;;8.00;99.90;;;;;;5032861;28;20064;-38
2023/02/04 07:59:44;;;;;;;19.23;3.90;;;8.10;99.90;;;;;;5031360;28;20037;-40
2023/02/04 08:02:10;;;;;;;20.13;3.88;;;8.10;99.90;;;;;;5022166;28;20026;-37
2023/02/04 08:04:36;;;;;;;15.38;3.10;;;8.10;99.90;;;;;;5034873;28;20021;-38
2023/02/04 08:07:03;;;;;;;15.00;3.60;;;8.10;99.90;;;;;;5031397;28;20030;-39
2023/02/04 08:09:28;;;;;;;18.25;4.07;;;8.20;99.90;;;;;;5024361;28;20109;-35
2023/02/04 08:11:54;;;;;;;20.77;3.47;;;8.20;99.90;;;;;;5014375;28;20160;-37
2023/02/04 08:14:20;;;;;;;12.77;3.50;;;8.30;99.90;;;;;;5014671;28;20540;-36
2023/02/04 08:16:46;;;;;;;8.77;3.65;;;8.30;99.90;;;;;;5022942;28;20060;-39
2023/02/04 08:19:17;;;;;;;18.60;3.58;;;8.30;99.90;;;;;;5034484;28;20025;-37
2023/02/04 08:21:44;;;;;;;14.18;3.33;;;8.40;99.90;;;;;;5018767;28;20040;-34
2023/02/04 08:24:11;;;;;;;14.80;3.55;;;8.40;99.90;;;;;;5021590;28;20026;-37
2023/02/04 08:26:36;;;;;;;15.68;3.15;;;8.50;99.90;;;;;;5014735;28;20026;-35
2023/02/04 08:29:02;;;;;;;12.80;3.65;;;8.50;99.90;;;;;;5014401;28;20497;-40
2023/02/04 08:31:28;;;;;;;14.18;3.38;;;8.50;99.90;;;;;;5014986;28;20022;-39
2023/02/04 08:33:53;;;;;;;20.50;4.18;;;8.60;99.90;;;;;;5023171;28;20579;-42
2023/02/04 08:36:19;;;;;;;17.52;4.00;;;8.70;99.90;;;;;;5032766;28;20099;-45
2023/02/04 08:38:45;;;;;;;19.80;4.20;;;8.80;99.90;;;;;;5033225;28;20010;-46
2023/02/04 08:41:10;;;;;;;25.17;4.57;;;8.80;99.90;;;;;;5031307;28;20113;-42
2023/02/04 08:43:36;;;;;;;32.45;5.68;;;8.80;99.90;;;;;;5021730;28;20409;-44
2023/02/04 08:46:02;;;;;;;20.75;3.67;;;8.90;99.90;;;;;;5026827;28;20029;-43
2023/02/04 08:48:27;;;;;;;21.98;4.88;;;8.90;99.90;;;;;;5020841;28;20049;-42
2023/02/04 08:50:53;;;;;;;22.40;4.95;;;8.90;99.90;;;;;;5029909;28;20022;-48
2023/02/04 08:53:19;;;;;;;32.28;6.45;;;9.00;99.90;;;;;;5029624;28;20025;-44
2023/02/04 08:55:44;;;;;;;24.73;4.80;;;9.10;99.90;;;;;;5033622;28;20470;-46
2023/02/04 08:58:10;;;;;;;28.58;4.35;;;9.00;99.90;;;;;;5033637;28;20029;-43
2023/02/04 09:00:35;;;;;;;19.20;4.25;;;9.10;99.90;;;;;;5027492;28;20033;-40
2023/02/04 09:03:01;;;;;;;29.90;5.22;;;9.10;99.90;;;;;;5013617;28;20127;-42
2023/02/04 09:05:26;;;;;;;23.48;4.72;;;9.20;99.90;;;;;;5014423;28;20088;-39
2023/02/04 09:07:52;;;;;;;38.45;6.38;;;9.20;99.90;;;;;;5013505;28;20509;-45
2023/02/04 09:10:18;;;;;;;27.90;4.38;;;9.10;99.90;;;;;;5019994;28;20087;-41
2023/02/04 09:12:44;;;;;;;21.27;5.15;;;9.20;99.90;;;;;;5021215;28;20030;-47
2023/02/04 09:15:10;;;;;;;21.08;4.07;;;9.30;99.90;;;;;;5026000;28;20032;-46
2023/02/04 09:17:37;;;;;;;25.83;5.03;;;9.40;99.90;;;;;;5031494;28;20172;-47
2023/02/04 09:20:04;;;;;;;21.83;4.30;;;9.50;99.90;;;;;;5024232;28;20108;-42
2023/02/04 09:22:29;;;;;;;23.67;4.95;;;9.60;99.90;;;;;;5030299;28;20040;-48
2023/02/04 09:24:55;;;;;;;19.52;6.32;;;9.60;99.90;;;;;;5016377;28;20029;-46
2023/02/04 09:27:20;;;;;;;24.15;4.60;;;9.60;99.90;;;;;;5031834;28;20026;-37
2023/02/04 09:29:46;;;;;;;16.45;4.53;;;9.60;99.90;;;;;;5033015;28;20028;-39
2023/02/04 09:32:12;;;;;;;22.73;4.50;;;9.60;99.90;;;;;;5032103;28;20393;-39
2023/02/04 09:34:37;;;;;;;20.60;4.28;;;9.70;99.90;;;;;;5032032;28;20433;-37
2023/02/04 09:37:03;;;;;;;24.95;4.55;;;9.80;99.90;;;;;;5025186;28;20034;-37
2023/02/04 09:39:29;;;;;;;25.60;5.03;;;9.80;99.90;;;;;;5032939;28;20035;-38
2023/02/04 09:41:55;;;;;;;13.07;4.05;;;9.80;99.90;;;;;;5030624;28;20363;-36
2023/02/04 09:44:24;;;;;;;18.65;3.47;;;10.00;99.90;;;;;;5029760;28;20033;-38
2023/02/04 09:46:54;;;;;;;20.20;3.53;;;10.00;99.90;;;;;;5027610;28;20045;-40
2023/02/04 09:49:20;;;;;;;22.00;3.67;;;10.10;99.90;;;;;;5029541;28;20219;-39
2023/02/04 09:51:46;;;;;;;16.42;3.05;;;10.20;99.90;;;;;;5022536;28;20399;-40
2023/02/04 09:54:18;;;;;;;21.92;4.88;;;10.30;99.90;;;;;;5024567;28;20550;-33
2023/02/04 09:56:44;;;;;;;25.30;4.57;;;10.40;99.90;;;;;;5031525;28;20474;-34
2023/02/04 09:59:21;;;;;;;17.75;3.78;;;10.50;99.90;;;;;;5019871;28;20022;-38
2023/02/04 10:01:56;;;;;;;19.20;4.00;;;10.50;99.90;;;;;;5032237;28;20021;-40
2023/02/04 10:04:23;;;;;;;27.48;4.78;;;10.60;99.90;;;;;;5030027;28;20065;-37
2023/02/04 10:06:49;;;;;;;26.60;4.03;;;10.70;99.90;;;;;;5031025;28;20470;-38
2023/02/04 10:09:16;;;;;;;11.93;3.15;;;10.60;99.90;;;;;;5020527;28;20337;-35
2023/02/04 10:11:43;;;;;;;25.80;4.38;;;10.50;99.90;;;;;;5013488;28;20083;-39
2023/02/04 10:14:16;;;;;;;17.30;3.80;;;10.50;99.90;;;;;;5029425;28;20478;-37
2023/02/04 10:16:47;;;;;;;25.80;4.32;;;10.60;99.90;;;;;;5030507;28;20025;-40
2023/02/04 10:19:14;;;;;;;17.35;3.63;;;10.60;99.90;;;;;;5030008;28;20041;-41
2023/02/04 10:21:42;;;;;;;25.98;3.42;;;10.70;99.90;;;;;;5035105;28;20028;-38
2023/02/04 10:24:17;;;;;;;28.92;3.70;;;10.80;99.90;;;;;;5035583;28;20032;-40
2023/02/04 10:26:43;;;;;;;22.02;3.95;;;10.80;99.90;;;;;;5029693;28;20053;-39
2023/02/04 10:29:21;;;;;;;21.52;3.70;;;10.90;99.90;;;;;;5026674;28;20513;-40
2023/02/04 10:31:48;;;;;;;25.10;4.20;;;11.00;99.90;;;;;;5035546;28;20479;-37
2023/02/04 10:34:23;;;;;;;21.98;4.38;;;11.10;99.90;;;;;;5033671;28;20028;-36
2023/02/04 10:36:56;;;;;;;31.00;4.55;;;11.10;99.90;;;;;;5035197;28;20025;-37
2023/02/04 10:39:24;;;;;;;25.42;3.65;;;11.10;99.90;;;;;;5031312;28;20523;-39
2023/02/04 10:41:50;;;;;;;;;;;11.20;99.90;;;;;;5035030;28;20020;-40
2023/02/04 10:44:19;;;;;;;15.65;4.40;;;11.20;99.90;;;;;;5017930;28;20350;-38
2023/02/04 10:46:46;;;;;;;15.10;3.60;;;11.30;99.90;;;;;;5035067;28;20473;-38
2023/02/04 10:49:18;;;;;;;23.67;3.60;;;11.20;99.90;;;;;;5035997;28;20025;-38
2023/02/04 10:51:44;;;;;;;29.92;4.82;;;11.20;99.90;;;;;;5026906;28;20026;-41
2023/02/04 10:54:31;;;;;;;20.75;4.20;;;11.20;99.90;;;;;;5017282;28;20454;-38
2023/02/04 10:57:18;;;;;;;23.63;3.30;;;11.10;99.90;;;;;;5035080;28;20108;-39
2023/02/04 10:59:44;;;;;;;19.35;3.17;;;11.10;99.90;;;;;;5027406;28;20492;-41
2023/02/04 11:02:44;;;;;;;25.88;3.58;;;11.10;99.90;;;;;;5019186;28;20509;-39
2023/02/04 11:05:19;;;;;;;20.38;4.00;;;11.10;99.90;;;;;;5017572;28;20127;-40
2023/02/04 11:07:47;;;;;;;28.25;4.82;;;11.20;99.90;;;;;;5035456;28;20063;-41
2023/02/04 11:10:18;;;;;;;15.95;3.25;;;11.30;99.90;;;;;;5023252;28;20112;-40
2023/02/04 11:12:57;;;;;;;19.05;3.85;;;11.40;99.90;;;;;;5033416;28;20620;-40
2023/02/04 11:15:46;;;;;;;28.38;4.63;;;11.50;99.90;;;;;;5035864;28;20555;-40
2023/02/04 11:18:20;;;;;;;29.38;4.10;;;11.30;99.90;;;;;;5035609;28;20482;-36
2023/02/04 11:20:51;;;;;;;19.20;3.50;;;11.20;99.90;;;;;;5035503;28;20049;-40
2023/02/04 11:23:26;;;;;;;32.53;3.83;;;11.30;99.90;;;;;;5019270;28;20120;-38
2023/02/04 11:26:18;;;;;;;26.55;4.60;;;11.40;99.90;;;;;;5022472;28;20409;-38
2023/02/04 11:28:51;;;;;;;32.42;3.55;;;11.50;99.90;;;;;;5027496;28;20033;-40
2023/02/04 11:31:20;;;;;;;18.92;3.65;;;11.50;99.90;;;;;;5021001;28;20478;-41
2023/02/04 11:33:46;;;;;;;20.55;4.70;;;11.60;99.90;;;;;;5027745;28;20030;-39
2023/02/04 11:36:13;;;;;;;11.38;2.75;;;11.60;99.90;;;;;;5067291;28;20155;-38
2023/02/04 11:38:44;;;;;;;25.95;3.90;;;11.70;99.90;;;;;;5035207;28;20036;-41
2023/02/04 11:41:18;;;;;;;19.73;2.97;;;11.60;99.90;;;;;;5032892;28;20029;-39
2023/02/04 11:43:44;;;;;;;24.88;3.50;;;11.60;99.90;;;;;;5013694;28;20045;-38
2023/02/04 11:46:15;;;;;;;28.40;4.28;;;11.50;99.90;;;;;;5014907;28;20479;-38
2023/02/04 11:48:41;;;;;;;24.42;3.80;;;11.40;99.90;;;;;;5028718;28;20025;-40
2023/02/04 11:51:13;;;;;;;19.13;3.28;;;11.30;99.90;;;;;;5017541;28;20127;-41
2023/02/04 11:53:39;;;;;;;28.02;3.33;;;11.30;99.90;;;;;;5021321;28;20084;-48
2023/02/04 11:56:04;;;;;;;14.63;2.72;;;11.20;99.90;;;;;;5021538;28;20029;-48
2023/02/04 11:58:31;;;;;;;20.90;3.05;;;11.20;99.90;;;;;;5031063;28;21344;-43
2023/02/04 12:00:57;;;;;;;18.08;3.28;;;11.20;99.90;;;;;;5031777;28;20021;-44
2023/02/04 12:03:30;;;;;;;12.57;3.53;;;11.40;99.90;;;;;;5034846;28;20088;-48
2023/02/04 12:05:57;;;;;;;25.55;3.88;;;11.50;99.90;;;;;;5027568;28;20558;-48
2023/02/04 12:08:25;;;;;;;17.13;3.42;;;11.60;99.90;;;;;;5021242;28;20052;-45
2023/02/04 12:11:10;;;;;;;20.80;3.70;;;11.70;99.90;;;;;;5034771;28;20492;-46
2023/02/04 12:13:49;;;;;;;31.33;3.85;;;11.70;99.90;;;;;;5031976;28;20038;-42
2023/02/04 12:16:15;;;;;;;37.58;5.05;;;11.60;99.90;;;;;;5022886;28;20425;-43
2023/02/04 12:18:40;;;;;;;40.63;8.77;;;11.60;99.90;;;;;;5014825;28;20026;-47
2023/02/04 12:21:06;;;;;;;40.85;9.85;;;11.50;99.90;;;;;;5014283;28;20025;-46
2023/02/04 12:23:32;;;;;;;26.88;5.00;;;11.50;99.90;;;;;;5017622;28;20021;-45
2023/02/04 12:25:58;;;;;;;25.15;4.18;;;11.50;99.90;;;;;;5035166;28;20482;-46
2023/02/04 12:28:24;;;;;;;21.63;5.32;;;11.40;99.90;;;;;;5034262;28;20083;-44
2023/02/04 12:30:50;;;;;;;37.55;9.90;;;11.40;99.90;;;;;;5025348;28;20533;-44
2023/02/04 12:33:16;;;;;;;21.75;4.93;;;11.50;99.90;;;;;;5014415;28;20064;-43
2023/02/04 12:35:42;;;;;;;34.47;4.55;;;11.60;99.90;;;;;;5015362;28;20045;-43
2023/02/04 12:38:09;;;;;;;16.23;3.08;;;11.70;99.90;;;;;;5027952;28;20108;-43
2023/02/04 12:40:34;;;;;;;17.48;3.13;;;11.70;99.90;;;;;;5019608;28;20136;-45
2023/02/04 12:43:00;;;;;;;30.10;5.82;;;11.60;99.90;;;;;;5033303;28;20037;-46
2023/02/04 12:45:25;;;;;;;20.77;3.17;;;11.60;99.90;;;;;;5033944;28;20057;-45
2023/02/04 12:47:51;;;;;;;14.38;2.55;;;11.60;99.90;;;;;;5025976;28;20033;-42
2023/02/04 12:50:21;;;;;;;14.13;3.10;;;11.70;99.90;;;;;;5017644;28;20025;-39